sensor_id;sensor_type;location;lat;lon;timestamp;P1;durP1;ratioP1;P2;durP2;ratioP2
3167;SDS011;37221;51.548;6.984;2022-07-03T00:01:23;3.60;;;1.73;;
3167;SDS011;37221;51.548;6.984;2022-07-03T00:03:50;1.70;;;1.60;;
3167;SDS011;37221;51.548;6.984;2022-07-03T00:06:16;6.37;;;2.73;;
3167;SDS011;37221;51.548;6.984;2022-07-03T00:08:42;2.70;;;2.50;;
3167;SDS011;37221;51.548;6.984;2022-07-03T00:11:08;2.50;;;2.30;;
3167;SDS011;37221;51.548;6.984;2022-07-03T00:13:34;3.90;;;1.83;;
3167;SDS011;37221;51.548;6.984;2022-07-03T00:16:00;1.50;;;1.40;;
3167;SDS011;37221;51.548;6.984;2022-07-03T00:18:27;3.50;;;1.80;;
3167;SDS011;37221;51.548;6.984;2022-07-03T00:21:03;5.13;;;2.47;;
3167;SDS011;37221;51.548;6.984;2022-07-03T00:23:38;3.30;;;2.53;;
3167;SDS011;37221;51.548;6.984;2022-07-03T00:26:24;2.33;;;1.87;;
3167;SDS011;37221;51.548;6.984;2022-07-03T00:28:55;2.83;;;2.07;;
3167;SDS011;37221;51.548;6.984;2022-07-03T00:31:30;2.10;;;1.70;;
3167;SDS011;37221;51.548;6.984;2022-07-03T00:33:58;6.47;;;2.40;;
3167;SDS011;37221;51.548;6.984;2022-07-03T00:36:29;5.00;;;2.43;;
3167;SDS011;37221;51.548;6.984;2022-07-03T00:39:02;2.67;;;2.43;;
3167;SDS011;37221;51.548;6.984;2022-07-03T00:41:30;2.57;;;2.27;;
3167;SDS011;37221;51.548;6.984;2022-07-03T00:44:01;3.13;;;2.60;;
3167;SDS011;37221;51.548;6.984;2022-07-03T00:46:28;2.83;;;2.07;;
3167;SDS011;37221;51.548;6.984;2022-07-03T00:48:55;2.10;;;1.90;;
3167;SDS011;37221;51.548;6.984;2022-07-03T00:51:25;2.33;;;2.13;;
3167;SDS011;37221;51.548;6.984;2022-07-03T00:53:57;4.00;;;2.67;;
3167;SDS011;37221;51.548;6.984;2022-07-03T00:56:28;2.00;;;1.90;;
3167;SDS011;37221;51.548;6.984;2022-07-03T00:58:57;3.10;;;2.07;;
3167;SDS011;37221;51.548;6.984;2022-07-03T01:01:29;2.90;;;1.87;;
3167;SDS011;37221;51.548;6.984;2022-07-03T01:07:51;3.17;;;2.10;;
3167;SDS011;37221;51.548;6.984;2022-07-03T01:17:06;2.80;;;2.60;;
3167;SDS011;37221;51.548;6.984;2022-07-03T01:19:51;3.33;;;2.30;;
3167;SDS011;37221;51.548;6.984;2022-07-03T01:27:43;2.10;;;1.90;;
3167;SDS011;37221;51.548;6.984;2022-07-03T01:30:27;2.30;;;2.10;;
3167;SDS011;37221;51.548;6.984;2022-07-03T01:33:07;4.70;;;2.70;;
3167;SDS011;37221;51.548;6.984;2022-07-03T01:35:41;4.27;;;2.30;;
3167;SDS011;37221;51.548;6.984;2022-07-03T01:38:33;1.47;;;1.37;;
3167;SDS011;37221;51.548;6.984;2022-07-03T01:41:03;2.13;;;1.90;;
3167;SDS011;37221;51.548;6.984;2022-07-03T01:43:34;2.83;;;1.93;;
3167;SDS011;37221;51.548;6.984;2022-07-03T01:46:09;2.70;;;2.50;;
3167;SDS011;37221;51.548;6.984;2022-07-03T01:48:41;2.47;;;2.27;;
3167;SDS011;37221;51.548;6.984;2022-07-03T01:51:12;12.70;;;2.50;;
3167;SDS011;37221;51.548;6.984;2022-07-03T01:53:43;4.90;;;2.60;;
3167;SDS011;37221;51.548;6.984;2022-07-03T01:56:13;2.23;;;2.03;;
3167;SDS011;37221;51.548;6.984;2022-07-03T01:58:46;3.00;;;2.63;;
3167;SDS011;37221;51.548;6.984;2022-07-03T02:04:11;2.20;;;2.00;;
3167;SDS011;37221;51.548;6.984;2022-07-03T02:09:41;1.70;;;1.60;;
3167;SDS011;37221;51.548;6.984;2022-07-03T02:12:27;2.00;;;1.90;;
3167;SDS011;37221;51.548;6.984;2022-07-03T02:15:07;2.43;;;2.23;;
3167;SDS011;37221;51.548;6.984;2022-07-03T02:17:41;2.20;;;2.00;;
3167;SDS011;37221;51.548;6.984;2022-07-03T02:20:13;3.30;;;2.10;;
3167;SDS011;37221;51.548;6.984;2022-07-03T02:22:44;3.50;;;2.50;;
3167;SDS011;37221;51.548;6.984;2022-07-03T02:25:34;2.53;;;2.23;;
3167;SDS011;37221;51.548;6.984;2022-07-03T02:28:06;3.13;;;2.33;;
3167;SDS011;37221;51.548;6.984;2022-07-03T02:31:02;3.03;;;2.83;;
3167;SDS011;37221;51.548;6.984;2022-07-03T02:33:32;2.83;;;2.60;;
3167;SDS011;37221;51.548;6.984;2022-07-03T02:36:06;2.37;;;2.17;;
3167;SDS011;37221;51.548;6.984;2022-07-03T02:38:40;4.07;;;2.20;;
3167;SDS011;37221;51.548;6.984;2022-07-03T02:41:14;2.23;;;2.10;;
3167;SDS011;37221;51.548;6.984;2022-07-03T02:46:42;2.47;;;2.13;;
3167;SDS011;37221;51.548;6.984;2022-07-03T02:52:10;2.40;;;2.20;;
3167;SDS011;37221;51.548;6.984;2022-07-03T02:54:52;2.83;;;2.43;;
3167;SDS011;37221;51.548;6.984;2022-07-03T02:57:25;2.87;;;2.50;;
3167;SDS011;37221;51.548;6.984;2022-07-03T03:00:05;2.43;;;2.30;;
3167;SDS011;37221;51.548;6.984;2022-07-03T03:05:21;2.93;;;2.47;;
3167;SDS011;37221;51.548;6.984;2022-07-03T03:14:09;4.33;;;3.93;;
3167;SDS011;37221;51.548;6.984;2022-07-03T03:17:01;3.50;;;3.20;;
3167;SDS011;37221;51.548;6.984;2022-07-03T03:19:32;2.67;;;2.47;;
3167;SDS011;37221;51.548;6.984;2022-07-03T03:22:09;7.40;;;3.70;;
3167;SDS011;37221;51.548;6.984;2022-07-03T03:25:15;3.97;;;3.67;;
3167;SDS011;37221;51.548;6.984;2022-07-03T03:27:41;6.03;;;5.40;;
3167;SDS011;37221;51.548;6.984;2022-07-03T03:30:07;6.43;;;4.73;;
3167;SDS011;37221;51.548;6.984;2022-07-03T03:32:34;4.07;;;3.40;;
3167;SDS011;37221;51.548;6.984;2022-07-03T03:35:03;3.53;;;3.23;;
3167;SDS011;37221;51.548;6.984;2022-07-03T03:37:30;4.90;;;3.30;;
3167;SDS011;37221;51.548;6.984;2022-07-03T03:39:56;4.17;;;3.50;;
3167;SDS011;37221;51.548;6.984;2022-07-03T03:42:23;4.07;;;3.07;;
3167;SDS011;37221;51.548;6.984;2022-07-03T03:44:48;3.70;;;3.30;;
3167;SDS011;37221;51.548;6.984;2022-07-03T03:47:14;3.97;;;3.50;;
3167;SDS011;37221;51.548;6.984;2022-07-03T03:49:40;7.03;;;4.10;;
3167;SDS011;37221;51.548;6.984;2022-07-03T03:52:06;4.63;;;3.10;;
3167;SDS011;37221;51.548;6.984;2022-07-03T03:54:32;2.90;;;2.60;;
3167;SDS011;37221;51.548;6.984;2022-07-03T03:57:13;3.60;;;3.30;;
3167;SDS011;37221;51.548;6.984;2022-07-03T03:59:49;6.83;;;4.20;;
3167;SDS011;37221;51.548;6.984;2022-07-03T04:02:16;4.60;;;4.20;;
3167;SDS011;37221;51.548;6.984;2022-07-03T04:04:44;4.20;;;3.80;;
3167;SDS011;37221;51.548;6.984;2022-07-03T04:07:10;8.10;;;4.70;;
3167;SDS011;37221;51.548;6.984;2022-07-03T04:09:36;4.53;;;4.10;;
3167;SDS011;37221;51.548;6.984;2022-07-03T04:12:02;5.93;;;4.00;;
3167;SDS011;37221;51.548;6.984;2022-07-03T04:14:29;5.27;;;4.37;;
3167;SDS011;37221;51.548;6.984;2022-07-03T04:16:55;3.93;;;3.53;;
3167;SDS011;37221;51.548;6.984;2022-07-03T04:19:22;3.27;;;2.97;;
3167;SDS011;37221;51.548;6.984;2022-07-03T04:21:48;3.13;;;2.93;;
3167;SDS011;37221;51.548;6.984;2022-07-03T04:24:16;3.53;;;3.23;;
3167;SDS011;37221;51.548;6.984;2022-07-03T04:26:42;4.30;;;3.90;;
3167;SDS011;37221;51.548;6.984;2022-07-03T04:29:08;4.93;;;4.53;;
3167;SDS011;37221;51.548;6.984;2022-07-03T04:31:34;4.30;;;3.97;;
3167;SDS011;37221;51.548;6.984;2022-07-03T04:34:00;4.17;;;3.77;;
3167;SDS011;37221;51.548;6.984;2022-07-03T04:36:25;4.37;;;3.97;;
3167;SDS011;37221;51.548;6.984;2022-07-03T04:38:51;6.87;;;4.40;;
3167;SDS011;37221;51.548;6.984;2022-07-03T04:41:17;7.07;;;5.87;;
3167;SDS011;37221;51.548;6.984;2022-07-03T04:43:43;4.60;;;4.17;;
3167;SDS011;37221;51.548;6.984;2022-07-03T04:46:08;4.20;;;3.80;;
3167;SDS011;37221;51.548;6.984;2022-07-03T04:48:34;4.30;;;3.93;;
3167;SDS011;37221;51.548;6.984;2022-07-03T04:51:00;7.83;;;3.97;;
3167;SDS011;37221;51.548;6.984;2022-07-03T04:53:25;7.50;;;5.73;;
3167;SDS011;37221;51.548;6.984;2022-07-03T04:55:51;6.73;;;6.07;;
3167;SDS011;37221;51.548;6.984;2022-07-03T04:58:17;6.13;;;5.63;;
3167;SDS011;37221;51.548;6.984;2022-07-03T05:00:44;5.70;;;5.10;;
3167;SDS011;37221;51.548;6.984;2022-07-03T05:03:11;5.20;;;4.63;;
3167;SDS011;37221;51.548;6.984;2022-07-03T05:05:37;5.53;;;5.03;;
3167;SDS011;37221;51.548;6.984;2022-07-03T05:08:04;11.70;;;5.73;;
3167;SDS011;37221;51.548;6.984;2022-07-03T05:10:30;5.97;;;5.40;;
3167;SDS011;37221;51.548;6.984;2022-07-03T05:12:55;3.90;;;3.50;;
3167;SDS011;37221;51.548;6.984;2022-07-03T05:15:21;4.93;;;4.53;;
3167;SDS011;37221;51.548;6.984;2022-07-03T05:17:48;5.83;;;4.77;;
3167;SDS011;37221;51.548;6.984;2022-07-03T05:20:14;3.40;;;3.10;;
3167;SDS011;37221;51.548;6.984;2022-07-03T05:22:49;5.20;;;3.90;;
3167;SDS011;37221;51.548;6.984;2022-07-03T05:25:19;3.93;;;3.43;;
3167;SDS011;37221;51.548;6.984;2022-07-03T05:27:46;3.93;;;3.63;;
3167;SDS011;37221;51.548;6.984;2022-07-03T05:30:18;5.53;;;4.97;;
3167;SDS011;37221;51.548;6.984;2022-07-03T05:32:46;7.27;;;5.40;;
3167;SDS011;37221;51.548;6.984;2022-07-03T05:35:11;5.90;;;4.17;;
3167;SDS011;37221;51.548;6.984;2022-07-03T05:37:37;4.33;;;3.60;;
3167;SDS011;37221;51.548;6.984;2022-07-03T05:40:03;7.70;;;3.93;;
3167;SDS011;37221;51.548;6.984;2022-07-03T05:42:31;4.57;;;4.03;;
3167;SDS011;37221;51.548;6.984;2022-07-03T05:44:57;5.63;;;5.00;;
3167;SDS011;37221;51.548;6.984;2022-07-03T05:51:22;6.23;;;4.30;;
3167;SDS011;37221;51.548;6.984;2022-07-03T05:53:48;4.17;;;3.73;;
3167;SDS011;37221;51.548;6.984;2022-07-03T05:56:13;4.10;;;3.67;;
3167;SDS011;37221;51.548;6.984;2022-07-03T05:58:39;5.43;;;5.00;;
3167;SDS011;37221;51.548;6.984;2022-07-03T06:01:06;5.00;;;4.30;;
3167;SDS011;37221;51.548;6.984;2022-07-03T06:03:32;5.07;;;4.67;;
3167;SDS011;37221;51.548;6.984;2022-07-03T06:05:58;14.80;;;4.10;;
3167;SDS011;37221;51.548;6.984;2022-07-03T06:08:25;5.67;;;4.10;;
3167;SDS011;37221;51.548;6.984;2022-07-03T06:10:50;4.10;;;3.70;;
3167;SDS011;37221;51.548;6.984;2022-07-03T06:13:16;3.40;;;3.10;;
3167;SDS011;37221;51.548;6.984;2022-07-03T06:15:42;8.07;;;4.10;;
3167;SDS011;37221;51.548;6.984;2022-07-03T06:18:08;4.33;;;3.93;;
3167;SDS011;37221;51.548;6.984;2022-07-03T06:20:33;4.17;;;3.23;;
3167;SDS011;37221;51.548;6.984;2022-07-03T06:22:59;4.17;;;3.47;;
3167;SDS011;37221;51.548;6.984;2022-07-03T06:25:24;4.37;;;3.97;;
3167;SDS011;37221;51.548;6.984;2022-07-03T06:27:50;5.00;;;4.40;;
3167;SDS011;37221;51.548;6.984;2022-07-03T06:30:16;3.43;;;3.13;;
3167;SDS011;37221;51.548;6.984;2022-07-03T06:32:41;3.20;;;2.87;;
3167;SDS011;37221;51.548;6.984;2022-07-03T06:37:42;3.90;;;3.50;;
3167;SDS011;37221;51.548;6.984;2022-07-03T06:40:08;3.90;;;3.60;;
3167;SDS011;37221;51.548;6.984;2022-07-03T06:42:35;3.20;;;2.90;;
3167;SDS011;37221;51.548;6.984;2022-07-03T06:45:01;3.50;;;3.20;;
3167;SDS011;37221;51.548;6.984;2022-07-03T06:47:27;3.13;;;2.80;;
3167;SDS011;37221;51.548;6.984;2022-07-03T06:49:52;11.10;;;3.83;;
3167;SDS011;37221;51.548;6.984;2022-07-03T06:52:18;4.00;;;3.43;;
3167;SDS011;37221;51.548;6.984;2022-07-03T06:54:43;3.40;;;3.10;;
3167;SDS011;37221;51.548;6.984;2022-07-03T06:57:10;3.73;;;3.43;;
3167;SDS011;37221;51.548;6.984;2022-07-03T06:59:37;3.60;;;3.33;;
3167;SDS011;37221;51.548;6.984;2022-07-03T07:02:04;3.67;;;2.97;;
3167;SDS011;37221;51.548;6.984;2022-07-03T07:04:30;3.63;;;3.03;;
3167;SDS011;37221;51.548;6.984;2022-07-03T07:06:56;4.80;;;3.23;;
3167;SDS011;37221;51.548;6.984;2022-07-03T07:09:22;3.60;;;3.10;;
3167;SDS011;37221;51.548;6.984;2022-07-03T07:12:03;6.33;;;3.33;;
3167;SDS011;37221;51.548;6.984;2022-07-03T07:14:29;4.80;;;2.53;;
3167;SDS011;37221;51.548;6.984;2022-07-03T07:16:55;3.47;;;2.80;;
3167;SDS011;37221;51.548;6.984;2022-07-03T07:19:21;2.70;;;2.50;;
3167;SDS011;37221;51.548;6.984;2022-07-03T07:21:47;8.00;;;2.23;;
3167;SDS011;37221;51.548;6.984;2022-07-03T07:24:12;3.90;;;3.27;;
3167;SDS011;37221;51.548;6.984;2022-07-03T07:26:38;7.63;;;3.53;;
3167;SDS011;37221;51.548;6.984;2022-07-03T07:29:04;4.73;;;2.77;;
3167;SDS011;37221;51.548;6.984;2022-07-03T07:31:30;3.80;;;3.37;;
3167;SDS011;37221;51.548;6.984;2022-07-03T07:33:55;3.93;;;3.27;;
3167;SDS011;37221;51.548;6.984;2022-07-03T07:36:21;4.00;;;2.90;;
3167;SDS011;37221;51.548;6.984;2022-07-03T07:38:47;2.80;;;2.60;;
3167;SDS011;37221;51.548;6.984;2022-07-03T07:41:12;3.60;;;3.10;;
3167;SDS011;37221;51.548;6.984;2022-07-03T07:43:38;3.57;;;2.63;;
3167;SDS011;37221;51.548;6.984;2022-07-03T07:46:03;3.70;;;2.70;;
3167;SDS011;37221;51.548;6.984;2022-07-03T07:48:29;3.30;;;3.00;;
3167;SDS011;37221;51.548;6.984;2022-07-03T07:50:56;4.30;;;3.30;;
3167;SDS011;37221;51.548;6.984;2022-07-03T07:53:21;3.47;;;3.00;;
3167;SDS011;37221;51.548;6.984;2022-07-03T07:55:47;3.53;;;2.80;;
3167;SDS011;37221;51.548;6.984;2022-07-03T07:58:13;7.07;;;3.07;;
3167;SDS011;37221;51.548;6.984;2022-07-03T08:00:38;7.00;;;3.60;;
3167;SDS011;37221;51.548;6.984;2022-07-03T08:03:24;5.20;;;3.40;;
3167;SDS011;37221;51.548;6.984;2022-07-03T08:06:09;6.13;;;2.70;;
3167;SDS011;37221;51.548;6.984;2022-07-03T08:08:35;2.90;;;2.60;;
3167;SDS011;37221;51.548;6.984;2022-07-03T08:11:00;4.70;;;3.20;;
3167;SDS011;37221;51.548;6.984;2022-07-03T08:13:26;5.37;;;2.70;;
3167;SDS011;37221;51.548;6.984;2022-07-03T08:15:52;4.50;;;3.07;;
3167;SDS011;37221;51.548;6.984;2022-07-03T08:18:17;4.50;;;2.17;;
3167;SDS011;37221;51.548;6.984;2022-07-03T08:20:43;3.40;;;2.87;;
3167;SDS011;37221;51.548;6.984;2022-07-03T08:23:09;3.93;;;2.50;;
3167;SDS011;37221;51.548;6.984;2022-07-03T08:25:35;2.50;;;2.30;;
3167;SDS011;37221;51.548;6.984;2022-07-03T08:28:01;5.43;;;3.43;;
3167;SDS011;37221;51.548;6.984;2022-07-03T08:30:27;3.40;;;3.07;;
3167;SDS011;37221;51.548;6.984;2022-07-03T08:32:55;3.63;;;3.27;;
3167;SDS011;37221;51.548;6.984;2022-07-03T08:35:23;7.43;;;2.90;;
3167;SDS011;37221;51.548;6.984;2022-07-03T08:37:49;8.07;;;3.50;;
3167;SDS011;37221;51.548;6.984;2022-07-03T08:40:16;9.90;;;3.53;;
3167;SDS011;37221;51.548;6.984;2022-07-03T08:42:56;3.97;;;3.30;;
3167;SDS011;37221;51.548;6.984;2022-07-03T08:45:28;6.73;;;2.90;;
3167;SDS011;37221;51.548;6.984;2022-07-03T08:47:58;2.83;;;2.27;;
3167;SDS011;37221;51.548;6.984;2022-07-03T08:50:26;4.83;;;3.80;;
3167;SDS011;37221;51.548;6.984;2022-07-03T08:52:54;7.90;;;5.07;;
3167;SDS011;37221;51.548;6.984;2022-07-03T08:55:19;4.40;;;3.07;;
3167;SDS011;37221;51.548;6.984;2022-07-03T08:57:47;3.90;;;2.60;;
3167;SDS011;37221;51.548;6.984;2022-07-03T09:03:03;4.20;;;2.83;;
3167;SDS011;37221;51.548;6.984;2022-07-03T09:05:36;4.67;;;3.20;;
3167;SDS011;37221;51.548;6.984;2022-07-03T09:08:05;4.77;;;2.87;;
3167;SDS011;37221;51.548;6.984;2022-07-03T09:10:34;4.73;;;2.63;;
3167;SDS011;37221;51.548;6.984;2022-07-03T09:13:00;3.70;;;2.57;;
3167;SDS011;37221;51.548;6.984;2022-07-03T09:15:26;3.27;;;2.50;;
3167;SDS011;37221;51.548;6.984;2022-07-03T09:17:55;5.67;;;2.97;;
3167;SDS011;37221;51.548;6.984;2022-07-03T09:20:36;3.80;;;2.43;;
3167;SDS011;37221;51.548;6.984;2022-07-03T09:23:13;2.63;;;2.43;;
3167;SDS011;37221;51.548;6.984;2022-07-03T09:28:40;3.17;;;2.87;;
3167;SDS011;37221;51.548;6.984;2022-07-03T09:31:18;6.90;;;2.27;;
3167;SDS011;37221;51.548;6.984;2022-07-03T09:33:54;5.47;;;2.70;;
3167;SDS011;37221;51.548;6.984;2022-07-03T09:36:39;2.50;;;2.13;;
3167;SDS011;37221;51.548;6.984;2022-07-03T09:39:13;5.17;;;2.10;;
3167;SDS011;37221;51.548;6.984;2022-07-03T09:41:54;8.23;;;3.37;;
3167;SDS011;37221;51.548;6.984;2022-07-03T09:44:41;7.50;;;1.90;;
3167;SDS011;37221;51.548;6.984;2022-07-03T09:47:13;5.10;;;3.13;;
3167;SDS011;37221;51.548;6.984;2022-07-03T09:57:42;3.93;;;2.63;;
3167;SDS011;37221;51.548;6.984;2022-07-03T10:00:24;2.60;;;2.40;;
3167;SDS011;37221;51.548;6.984;2022-07-03T10:05:40;3.70;;;2.77;;
3167;SDS011;37221;51.548;6.984;2022-07-03T10:10:39;3.50;;;2.70;;
3167;SDS011;37221;51.548;6.984;2022-07-03T10:13:10;3.90;;;3.30;;
3167;SDS011;37221;51.548;6.984;2022-07-03T10:15:38;3.27;;;2.53;;
3167;SDS011;37221;51.548;6.984;2022-07-03T10:18:10;3.70;;;1.97;;
3167;SDS011;37221;51.548;6.984;2022-07-03T10:23:11;2.53;;;2.33;;
3167;SDS011;37221;51.548;6.984;2022-07-03T10:25:43;2.40;;;2.20;;
3167;SDS011;37221;51.548;6.984;2022-07-03T10:28:11;5.83;;;2.90;;
3167;SDS011;37221;51.548;6.984;2022-07-03T10:30:39;4.90;;;2.80;;
3167;SDS011;37221;51.548;6.984;2022-07-03T10:33:09;6.67;;;3.70;;
3167;SDS011;37221;51.548;6.984;2022-07-03T10:35:36;4.03;;;2.83;;
3167;SDS011;37221;51.548;6.984;2022-07-03T10:38:18;2.50;;;2.30;;
3167;SDS011;37221;51.548;6.984;2022-07-03T10:41:25;3.80;;;2.70;;
3167;SDS011;37221;51.548;6.984;2022-07-03T10:44:20;2.13;;;2.00;;
3167;SDS011;37221;51.548;6.984;2022-07-03T10:47:05;5.17;;;2.30;;
3167;SDS011;37221;51.548;6.984;2022-07-03T10:49:30;2.20;;;2.10;;
3167;SDS011;37221;51.548;6.984;2022-07-03T10:51:57;2.67;;;2.47;;
3167;SDS011;37221;51.548;6.984;2022-07-03T10:54:29;1.90;;;1.60;;
3167;SDS011;37221;51.548;6.984;2022-07-03T11:02:16;1.80;;;1.70;;
3167;SDS011;37221;51.548;6.984;2022-07-03T11:15:28;2.07;;;1.87;;
3167;SDS011;37221;51.548;6.984;2022-07-03T11:23:19;4.90;;;2.40;;
3167;SDS011;37221;51.548;6.984;2022-07-03T11:26:21;4.80;;;2.53;;
3167;SDS011;37221;51.548;6.984;2022-07-03T11:28:54;3.00;;;2.70;;
3167;SDS011;37221;51.548;6.984;2022-07-03T11:31:20;2.10;;;1.90;;
3167;SDS011;37221;51.548;6.984;2022-07-03T11:38:53;5.37;;;2.40;;
3167;SDS011;37221;51.548;6.984;2022-07-03T11:44:06;3.40;;;2.27;;
3167;SDS011;37221;51.548;6.984;2022-07-03T11:46:35;3.83;;;2.77;;
3167;SDS011;37221;51.548;6.984;2022-07-03T11:49:14;4.97;;;2.23;;
3167;SDS011;37221;51.548;6.984;2022-07-03T11:52:00;5.07;;;2.17;;
3167;SDS011;37221;51.548;6.984;2022-07-03T11:54:33;3.13;;;2.10;;
3167;SDS011;37221;51.548;6.984;2022-07-03T11:57:18;3.43;;;1.97;;
3167;SDS011;37221;51.548;6.984;2022-07-03T11:59:44;3.20;;;2.13;;
3167;SDS011;37221;51.548;6.984;2022-07-03T12:02:13;2.60;;;1.70;;
3167;SDS011;37221;51.548;6.984;2022-07-03T12:04:39;3.00;;;2.13;;
3167;SDS011;37221;51.548;6.984;2022-07-03T12:07:05;3.20;;;2.00;;
3167;SDS011;37221;51.548;6.984;2022-07-03T12:09:32;4.13;;;2.07;;
3167;SDS011;37221;51.548;6.984;2022-07-03T12:12:08;2.07;;;1.97;;
3167;SDS011;37221;51.548;6.984;2022-07-03T12:14:37;2.90;;;1.80;;
3167;SDS011;37221;51.548;6.984;2022-07-03T12:17:31;6.13;;;2.17;;
3167;SDS011;37221;51.548;6.984;2022-07-03T12:19:59;3.50;;;1.47;;
3167;SDS011;37221;51.548;6.984;2022-07-03T12:22:32;1.97;;;1.77;;
3167;SDS011;37221;51.548;6.984;2022-07-03T12:25:07;5.60;;;1.70;;
3167;SDS011;37221;51.548;6.984;2022-07-03T12:27:38;3.40;;;1.70;;
3167;SDS011;37221;51.548;6.984;2022-07-03T12:30:10;3.27;;;2.17;;
3167;SDS011;37221;51.548;6.984;2022-07-03T12:32:51;5.63;;;1.70;;
3167;SDS011;37221;51.548;6.984;2022-07-03T12:35:21;1.70;;;1.60;;
3167;SDS011;37221;51.548;6.984;2022-07-03T12:37:52;4.60;;;1.80;;
3167;SDS011;37221;51.548;6.984;2022-07-03T12:40:17;3.27;;;1.50;;
3167;SDS011;37221;51.548;6.984;2022-07-03T12:45:18;2.37;;;2.00;;
3167;SDS011;37221;51.548;6.984;2022-07-03T12:47:59;1.80;;;1.60;;
3167;SDS011;37221;51.548;6.984;2022-07-03T12:50:51;3.73;;;1.67;;
3167;SDS011;37221;51.548;6.984;2022-07-03T12:55:54;2.20;;;1.37;;
3167;SDS011;37221;51.548;6.984;2022-07-03T12:58:30;8.03;;;1.77;;
3167;SDS011;37221;51.548;6.984;2022-07-03T13:01:31;2.13;;;1.43;;
3167;SDS011;37221;51.548;6.984;2022-07-03T13:04:01;2.50;;;2.23;;
3167;SDS011;37221;51.548;6.984;2022-07-03T13:06:29;2.57;;;2.10;;
3167;SDS011;37221;51.548;6.984;2022-07-03T13:08:58;1.80;;;1.27;;
3167;SDS011;37221;51.548;6.984;2022-07-03T13:11:30;1.70;;;1.23;;
3167;SDS011;37221;51.548;6.984;2022-07-03T13:14:03;2.40;;;1.70;;
3167;SDS011;37221;51.548;6.984;2022-07-03T13:16:41;2.83;;;1.33;;
3167;SDS011;37221;51.548;6.984;2022-07-03T13:19:16;2.50;;;2.00;;
3167;SDS011;37221;51.548;6.984;2022-07-03T13:21:45;3.80;;;1.70;;
3167;SDS011;37221;51.548;6.984;2022-07-03T13:24:14;1.87;;;1.77;;
3167;SDS011;37221;51.548;6.984;2022-07-03T13:26:42;1.40;;;1.30;;
3167;SDS011;37221;51.548;6.984;2022-07-03T13:29:08;2.80;;;1.87;;
3167;SDS011;37221;51.548;6.984;2022-07-03T13:31:34;2.37;;;1.60;;
3167;SDS011;37221;51.548;6.984;2022-07-03T13:34:00;1.93;;;1.70;;
3167;SDS011;37221;51.548;6.984;2022-07-03T13:36:27;1.30;;;1.20;;
3167;SDS011;37221;51.548;6.984;2022-07-03T13:38:55;3.60;;;1.57;;
3167;SDS011;37221;51.548;6.984;2022-07-03T13:41:23;1.43;;;1.33;;
3167;SDS011;37221;51.548;6.984;2022-07-03T13:43:50;2.17;;;1.50;;
3167;SDS011;37221;51.548;6.984;2022-07-03T13:46:18;2.63;;;1.70;;
3167;SDS011;37221;51.548;6.984;2022-07-03T13:48:50;4.00;;;1.60;;
3167;SDS011;37221;51.548;6.984;2022-07-03T13:51:18;2.20;;;1.67;;
3167;SDS011;37221;51.548;6.984;2022-07-03T13:53:45;3.40;;;1.60;;
3167;SDS011;37221;51.548;6.984;2022-07-03T13:56:13;4.00;;;1.70;;
3167;SDS011;37221;51.548;6.984;2022-07-03T13:58:41;5.37;;;1.70;;
3167;SDS011;37221;51.548;6.984;2022-07-03T14:01:06;1.50;;;1.40;;
3167;SDS011;37221;51.548;6.984;2022-07-03T14:03:32;2.17;;;2.07;;
3167;SDS011;37221;51.548;6.984;2022-07-03T14:06:07;3.80;;;1.53;;
3167;SDS011;37221;51.548;6.984;2022-07-03T14:08:33;3.20;;;1.80;;
3167;SDS011;37221;51.548;6.984;2022-07-03T14:10:59;2.00;;;1.80;;
3167;SDS011;37221;51.548;6.984;2022-07-03T14:13:25;1.80;;;1.70;;
3167;SDS011;37221;51.548;6.984;2022-07-03T14:15:50;2.00;;;1.60;;
3167;SDS011;37221;51.548;6.984;2022-07-03T14:18:16;1.67;;;1.50;;
3167;SDS011;37221;51.548;6.984;2022-07-03T14:20:42;2.00;;;1.80;;
3167;SDS011;37221;51.548;6.984;2022-07-03T14:23:07;2.60;;;1.80;;
3167;SDS011;37221;51.548;6.984;2022-07-03T14:25:33;4.20;;;1.90;;
3167;SDS011;37221;51.548;6.984;2022-07-03T14:27:59;1.97;;;1.60;;
3167;SDS011;37221;51.548;6.984;2022-07-03T14:30:43;1.67;;;1.43;;
3167;SDS011;37221;51.548;6.984;2022-07-03T14:33:27;1.97;;;1.60;;
3167;SDS011;37221;51.548;6.984;2022-07-03T14:35:52;2.87;;;1.60;;
3167;SDS011;37221;51.548;6.984;2022-07-03T14:38:19;2.17;;;1.70;;
3167;SDS011;37221;51.548;6.984;2022-07-03T14:40:45;1.30;;;1.20;;
3167;SDS011;37221;51.548;6.984;2022-07-03T14:43:11;1.47;;;1.37;;
3167;SDS011;37221;51.548;6.984;2022-07-03T14:45:36;1.67;;;1.50;;
3167;SDS011;37221;51.548;6.984;2022-07-03T14:48:02;2.93;;;1.80;;
3167;SDS011;37221;51.548;6.984;2022-07-03T14:50:30;4.23;;;1.80;;
3167;SDS011;37221;51.548;6.984;2022-07-03T14:52:56;1.43;;;1.33;;
3167;SDS011;37221;51.548;6.984;2022-07-03T14:55:31;6.00;;;1.50;;
3167;SDS011;37221;51.548;6.984;2022-07-03T14:58:04;2.30;;;1.33;;
3167;SDS011;37221;51.548;6.984;2022-07-03T15:00:46;1.57;;;1.47;;
3167;SDS011;37221;51.548;6.984;2022-07-03T15:05:57;4.50;;;1.60;;
3167;SDS011;37221;51.548;6.984;2022-07-03T15:08:42;6.63;;;1.40;;
3167;SDS011;37221;51.548;6.984;2022-07-03T15:11:26;1.20;;;1.10;;
3167;SDS011;37221;51.548;6.984;2022-07-03T15:14:42;1.30;;;1.20;;
3167;SDS011;37221;51.548;6.984;2022-07-03T15:17:10;1.30;;;1.00;;
3167;SDS011;37221;51.548;6.984;2022-07-03T15:19:38;2.53;;;1.40;;
3167;SDS011;37221;51.548;6.984;2022-07-03T15:22:08;1.30;;;1.20;;
3167;SDS011;37221;51.548;6.984;2022-07-03T15:24:37;1.30;;;1.20;;
3167;SDS011;37221;51.548;6.984;2022-07-03T15:27:05;2.00;;;1.63;;
3167;SDS011;37221;51.548;6.984;2022-07-03T15:29:32;2.13;;;1.57;;
3167;SDS011;37221;51.548;6.984;2022-07-03T15:32:02;1.40;;;1.10;;
3167;SDS011;37221;51.548;6.984;2022-07-03T15:34:30;2.37;;;1.20;;
3167;SDS011;37221;51.548;6.984;2022-07-03T15:37:12;2.57;;;1.80;;
3167;SDS011;37221;51.548;6.984;2022-07-03T15:40:04;1.73;;;1.40;;
3167;SDS011;37221;51.548;6.984;2022-07-03T15:51:45;1.77;;;1.67;;
3167;SDS011;37221;51.548;6.984;2022-07-03T16:00:20;3.20;;;1.60;;
3167;SDS011;37221;51.548;6.984;2022-07-03T16:06:04;1.53;;;1.30;;
3167;SDS011;37221;51.548;6.984;2022-07-03T16:08:32;1.60;;;1.50;;
3167;SDS011;37221;51.548;6.984;2022-07-03T16:11:04;2.60;;;1.40;;
3167;SDS011;37221;51.548;6.984;2022-07-03T16:13:30;1.30;;;1.27;;
3167;SDS011;37221;51.548;6.984;2022-07-03T16:15:59;2.10;;;1.83;;
3167;SDS011;37221;51.548;6.984;2022-07-03T16:18:26;1.50;;;1.40;;
3167;SDS011;37221;51.548;6.984;2022-07-03T16:20:54;2.70;;;2.00;;
3167;SDS011;37221;51.548;6.984;2022-07-03T16:23:20;1.77;;;1.67;;
3167;SDS011;37221;51.548;6.984;2022-07-03T16:25:48;7.43;;;1.97;;
3167;SDS011;37221;51.548;6.984;2022-07-03T16:28:20;1.30;;;1.20;;
3167;SDS011;37221;51.548;6.984;2022-07-03T16:30:48;1.40;;;1.30;;
3167;SDS011;37221;51.548;6.984;2022-07-03T16:33:16;1.27;;;1.17;;
3167;SDS011;37221;51.548;6.984;2022-07-03T16:35:55;3.20;;;1.80;;
3167;SDS011;37221;51.548;6.984;2022-07-03T16:38:34;2.80;;;1.43;;
3167;SDS011;37221;51.548;6.984;2022-07-03T16:41:10;6.00;;;1.33;;
3167;SDS011;37221;51.548;6.984;2022-07-03T16:43:41;1.27;;;1.17;;
3167;SDS011;37221;51.548;6.984;2022-07-03T16:46:11;1.50;;;1.13;;
3167;SDS011;37221;51.548;6.984;2022-07-03T16:48:41;3.03;;;1.40;;
3167;SDS011;37221;51.548;6.984;2022-07-03T16:51:14;1.40;;;1.30;;
3167;SDS011;37221;51.548;6.984;2022-07-03T16:53:44;5.60;;;1.37;;
3167;SDS011;37221;51.548;6.984;2022-07-03T16:56:11;1.80;;;1.43;;
3167;SDS011;37221;51.548;6.984;2022-07-03T16:58:37;1.53;;;1.43;;
3167;SDS011;37221;51.548;6.984;2022-07-03T17:01:05;1.57;;;1.07;;
3167;SDS011;37221;51.548;6.984;2022-07-03T17:03:36;1.60;;;1.13;;
3167;SDS011;37221;51.548;6.984;2022-07-03T17:06:04;7.20;;;1.40;;
3167;SDS011;37221;51.548;6.984;2022-07-03T17:08:32;1.87;;;1.00;;
3167;SDS011;37221;51.548;6.984;2022-07-03T17:11:01;4.23;;;1.30;;
3167;SDS011;37221;51.548;6.984;2022-07-03T17:13:28;1.00;;;0.90;;
3167;SDS011;37221;51.548;6.984;2022-07-03T17:15:55;2.40;;;1.20;;
3167;SDS011;37221;51.548;6.984;2022-07-03T17:18:27;1.23;;;1.13;;
3167;SDS011;37221;51.548;6.984;2022-07-03T17:21:12;0.80;;;0.63;;